Vandenberg Air Force Base Lompoc US
ICAO: KVBG
IATA: VBG
Category: Large
Scheduled Services: No

Elevation: 369 ft
TransAlt. 18000 ft.

Airport Communications:
SANTA BARB APP/DEP:124.15
COMD POST:31.1
ATIS:133.125
CTAF:124.95
GND/CLNC DEL:121.75
RANGE CON:121.4
PMSV METRO:34.24
PTD:126.2
TWR:124.95

KVBG Zoom In..

Runways:

(A) RW 12 length 15000 ft width 200 ft
ILS 110.10 / hdg 122

(B) RW 30 length 15000 ft width 200 ft
ILS 110.10 / hdg 302

Location; KVBG
Day. 23 / Time. 02.58 Zulu
* Altimeter: 30.09
* Temperature: 16° c. 60.8°f.
* Wind from: 350° Speed 08 kn.
Dewpoint: 14° c.
Visibility: 10 Statute Miles.
Clouds: Overcast 600 ft.

KVBG 230258Z AUTO 35008KT 10SM OVC006 16/14 A3009 RMK AO2 SLP192 T01590143 53000 $


Wind From 350°
Speed 08 kn.

 
 
jpsmedia.com for Web Design worldairports.se 2018   terms of use